sensor_id;sensor_type;location;lat;lon;timestamp;P1;durP1;ratioP1;P2;durP2;ratioP2
77226;SDS011;66234;47.642;19.144;2022-12-29T00:01:41;49.73;;;21.57;;
77226;SDS011;66234;47.642;19.144;2022-12-29T00:04:44;45.17;;;20.35;;
77226;SDS011;66234;47.642;19.144;2022-12-29T00:07:46;46.25;;;21.30;;
77226;SDS011;66234;47.642;19.144;2022-12-29T00:10:49;47.42;;;23.15;;
77226;SDS011;66234;47.642;19.144;2022-12-29T00:13:52;39.47;;;20.08;;
77226;SDS011;66234;47.642;19.144;2022-12-29T00:17:14;42.72;;;20.85;;
77226;SDS011;66234;47.642;19.144;2022-12-29T00:20:17;46.95;;;21.67;;
77226;SDS011;66234;47.642;19.144;2022-12-29T00:23:48;45.47;;;20.70;;
77226;SDS011;66234;47.642;19.144;2022-12-29T00:27:10;39.28;;;19.52;;
77226;SDS011;66234;47.642;19.144;2022-12-29T00:30:33;46.10;;;20.67;;
77226;SDS011;66234;47.642;19.144;2022-12-29T00:33:54;41.57;;;19.43;;
77226;SDS011;66234;47.642;19.144;2022-12-29T00:37:15;45.13;;;19.70;;
77226;SDS011;66234;47.642;19.144;2022-12-29T00:40:19;32.72;;;16.77;;
77226;SDS011;66234;47.642;19.144;2022-12-29T00:44:00;38.45;;;17.40;;
77226;SDS011;66234;47.642;19.144;2022-12-29T00:47:11;35.63;;;17.05;;
77226;SDS011;66234;47.642;19.144;2022-12-29T00:50:15;36.42;;;18.08;;
77226;SDS011;66234;47.642;19.144;2022-12-29T00:53:19;35.80;;;18.23;;
77226;SDS011;66234;47.642;19.144;2022-12-29T00:56:21;38.43;;;17.93;;
77226;SDS011;66234;47.642;19.144;2022-12-29T00:59:24;37.40;;;16.63;;
77226;SDS011;66234;47.642;19.144;2022-12-29T01:02:28;43.80;;;18.90;;
77226;SDS011;66234;47.642;19.144;2022-12-29T01:05:31;38.27;;;16.80;;
77226;SDS011;66234;47.642;19.144;2022-12-29T01:08:33;36.63;;;15.82;;
77226;SDS011;66234;47.642;19.144;2022-12-29T01:11:37;31.00;;;15.82;;
77226;SDS011;66234;47.642;19.144;2022-12-29T01:14:41;29.95;;;15.43;;
77226;SDS011;66234;47.642;19.144;2022-12-29T01:17:43;33.90;;;15.00;;
77226;SDS011;66234;47.642;19.144;2022-12-29T01:20:46;27.23;;;13.77;;
77226;SDS011;66234;47.642;19.144;2022-12-29T01:23:48;27.25;;;13.90;;
77226;SDS011;66234;47.642;19.144;2022-12-29T01:26:51;19.50;;;10.77;;
77226;SDS011;66234;47.642;19.144;2022-12-29T01:29:53;28.92;;;12.98;;
77226;SDS011;66234;47.642;19.144;2022-12-29T01:32:56;24.95;;;12.93;;
77226;SDS011;66234;47.642;19.144;2022-12-29T01:36:06;27.03;;;13.90;;
77226;SDS011;66234;47.642;19.144;2022-12-29T01:39:10;27.17;;;12.25;;
77226;SDS011;66234;47.642;19.144;2022-12-29T01:42:16;23.80;;;12.88;;
77226;SDS011;66234;47.642;19.144;2022-12-29T01:45:20;27.27;;;12.02;;
77226;SDS011;66234;47.642;19.144;2022-12-29T01:48:23;26.23;;;12.73;;
77226;SDS011;66234;47.642;19.144;2022-12-29T01:51:26;26.42;;;13.00;;
77226;SDS011;66234;47.642;19.144;2022-12-29T01:54:38;25.70;;;12.57;;
77226;SDS011;66234;47.642;19.144;2022-12-29T01:57:46;26.10;;;11.60;;
77226;SDS011;66234;47.642;19.144;2022-12-29T02:00:51;30.00;;;12.80;;
77226;SDS011;66234;47.642;19.144;2022-12-29T02:03:54;23.10;;;12.35;;
77226;SDS011;66234;47.642;19.144;2022-12-29T02:07:05;26.47;;;12.40;;
77226;SDS011;66234;47.642;19.144;2022-12-29T02:10:12;21.63;;;10.10;;
77226;SDS011;66234;47.642;19.144;2022-12-29T02:13:16;21.85;;;10.80;;
77226;SDS011;66234;47.642;19.144;2022-12-29T02:26:44;22.08;;;10.75;;
77226;SDS011;66234;47.642;19.144;2022-12-29T02:40:17;22.47;;;11.93;;
77226;SDS011;66234;47.642;19.144;2022-12-29T02:43:48;26.58;;;12.95;;
77226;SDS011;66234;47.642;19.144;2022-12-29T02:46:54;25.92;;;12.73;;
77226;SDS011;66234;47.642;19.144;2022-12-29T02:50:05;27.42;;;12.35;;
77226;SDS011;66234;47.642;19.144;2022-12-29T02:53:19;26.77;;;11.95;;
77226;SDS011;66234;47.642;19.144;2022-12-29T02:56:43;23.67;;;11.52;;
77226;SDS011;66234;47.642;19.144;2022-12-29T02:59:46;27.23;;;11.82;;
77226;SDS011;66234;47.642;19.144;2022-12-29T03:10:07;24.10;;;10.77;;
77226;SDS011;66234;47.642;19.144;2022-12-29T03:16:24;23.73;;;11.55;;
77226;SDS011;66234;47.642;19.144;2022-12-29T03:19:40;19.60;;;10.75;;
77226;SDS011;66234;47.642;19.144;2022-12-29T03:22:50;24.88;;;12.90;;
77226;SDS011;66234;47.642;19.144;2022-12-29T03:25:58;24.63;;;11.73;;
77226;SDS011;66234;47.642;19.144;2022-12-29T03:29:06;23.67;;;12.32;;
77226;SDS011;66234;47.642;19.144;2022-12-29T03:32:12;24.58;;;11.68;;
77226;SDS011;66234;47.642;19.144;2022-12-29T03:35:17;21.20;;;11.63;;
77226;SDS011;66234;47.642;19.144;2022-12-29T03:38:25;19.25;;;11.40;;
77226;SDS011;66234;47.642;19.144;2022-12-29T03:41:48;24.73;;;11.98;;
77226;SDS011;66234;47.642;19.144;2022-12-29T03:44:57;22.30;;;10.93;;
77226;SDS011;66234;47.642;19.144;2022-12-29T03:47:59;24.15;;;12.48;;
77226;SDS011;66234;47.642;19.144;2022-12-29T03:51:03;21.67;;;11.32;;
77226;SDS011;66234;47.642;19.144;2022-12-29T03:54:05;23.70;;;12.25;;
77226;SDS011;66234;47.642;19.144;2022-12-29T03:57:09;25.00;;;13.10;;
77226;SDS011;66234;47.642;19.144;2022-12-29T04:00:28;25.67;;;11.52;;
77226;SDS011;66234;47.642;19.144;2022-12-29T04:03:31;25.80;;;12.07;;
77226;SDS011;66234;47.642;19.144;2022-12-29T04:06:36;23.30;;;11.77;;
77226;SDS011;66234;47.642;19.144;2022-12-29T04:09:41;25.42;;;12.55;;
77226;SDS011;66234;47.642;19.144;2022-12-29T04:12:47;24.88;;;11.63;;
77226;SDS011;66234;47.642;19.144;2022-12-29T04:15:50;24.20;;;12.40;;
77226;SDS011;66234;47.642;19.144;2022-12-29T04:18:53;29.92;;;13.23;;
77226;SDS011;66234;47.642;19.144;2022-12-29T04:21:56;28.85;;;14.95;;
77226;SDS011;66234;47.642;19.144;2022-12-29T04:24:59;28.63;;;14.82;;
77226;SDS011;66234;47.642;19.144;2022-12-29T04:28:01;26.52;;;13.85;;
77226;SDS011;66234;47.642;19.144;2022-12-29T04:31:13;29.65;;;15.32;;
77226;SDS011;66234;47.642;19.144;2022-12-29T04:34:18;37.30;;;16.88;;
77226;SDS011;66234;47.642;19.144;2022-12-29T04:37:22;35.63;;;17.50;;
77226;SDS011;66234;47.642;19.144;2022-12-29T04:40:24;34.13;;;16.95;;
77226;SDS011;66234;47.642;19.144;2022-12-29T04:43:27;36.88;;;16.63;;
77226;SDS011;66234;47.642;19.144;2022-12-29T04:46:53;37.03;;;16.90;;
77226;SDS011;66234;47.642;19.144;2022-12-29T04:50:14;41.92;;;18.05;;
77226;SDS011;66234;47.642;19.144;2022-12-29T04:53:25;39.55;;;17.90;;
77226;SDS011;66234;47.642;19.144;2022-12-29T04:56:28;33.85;;;16.63;;
77226;SDS011;66234;47.642;19.144;2022-12-29T04:59:32;32.05;;;15.35;;
77226;SDS011;66234;47.642;19.144;2022-12-29T05:02:36;31.77;;;15.85;;
77226;SDS011;66234;47.642;19.144;2022-12-29T05:05:40;32.97;;;15.90;;
77226;SDS011;66234;47.642;19.144;2022-12-29T05:08:43;40.17;;;16.80;;
77226;SDS011;66234;47.642;19.144;2022-12-29T05:11:46;32.22;;;15.77;;
77226;SDS011;66234;47.642;19.144;2022-12-29T05:14:49;32.35;;;15.68;;
77226;SDS011;66234;47.642;19.144;2022-12-29T05:17:51;33.27;;;16.20;;
77226;SDS011;66234;47.642;19.144;2022-12-29T05:20:54;31.75;;;15.10;;
77226;SDS011;66234;47.642;19.144;2022-12-29T05:23:58;30.00;;;16.33;;
77226;SDS011;66234;47.642;19.144;2022-12-29T05:27:01;33.15;;;17.48;;
77226;SDS011;66234;47.642;19.144;2022-12-29T05:30:22;36.28;;;17.13;;
77226;SDS011;66234;47.642;19.144;2022-12-29T05:33:25;32.72;;;16.13;;
77226;SDS011;66234;47.642;19.144;2022-12-29T05:36:28;32.72;;;14.82;;
77226;SDS011;66234;47.642;19.144;2022-12-29T05:39:38;36.40;;;16.40;;
77226;SDS011;66234;47.642;19.144;2022-12-29T05:42:42;39.58;;;18.25;;
77226;SDS011;66234;47.642;19.144;2022-12-29T05:46:11;38.90;;;16.67;;
77226;SDS011;66234;47.642;19.144;2022-12-29T05:49:32;35.10;;;15.13;;
77226;SDS011;66234;47.642;19.144;2022-12-29T05:52:54;37.47;;;15.68;;
77226;SDS011;66234;47.642;19.144;2022-12-29T05:55:57;42.63;;;18.38;;
77226;SDS011;66234;47.642;19.144;2022-12-29T05:59:00;37.88;;;16.55;;
77226;SDS011;66234;47.642;19.144;2022-12-29T06:02:03;38.63;;;18.25;;
77226;SDS011;66234;47.642;19.144;2022-12-29T06:05:06;40.28;;;18.73;;
77226;SDS011;66234;47.642;19.144;2022-12-29T06:08:10;40.95;;;17.70;;
77226;SDS011;66234;47.642;19.144;2022-12-29T06:11:13;37.37;;;18.93;;
77226;SDS011;66234;47.642;19.144;2022-12-29T06:14:23;46.65;;;20.48;;
77226;SDS011;66234;47.642;19.144;2022-12-29T06:17:25;45.47;;;20.60;;
77226;SDS011;66234;47.642;19.144;2022-12-29T06:20:28;50.30;;;21.07;;
77226;SDS011;66234;47.642;19.144;2022-12-29T06:23:31;44.25;;;18.77;;
77226;SDS011;66234;47.642;19.144;2022-12-29T06:26:34;46.28;;;20.55;;
77226;SDS011;66234;47.642;19.144;2022-12-29T06:29:37;42.53;;;20.35;;
77226;SDS011;66234;47.642;19.144;2022-12-29T06:32:43;39.00;;;18.52;;
77226;SDS011;66234;47.642;19.144;2022-12-29T06:35:47;38.60;;;17.05;;
77226;SDS011;66234;47.642;19.144;2022-12-29T06:38:49;35.45;;;16.52;;
77226;SDS011;66234;47.642;19.144;2022-12-29T06:41:54;33.97;;;14.03;;
77226;SDS011;66234;47.642;19.144;2022-12-29T06:45:13;55.30;;;23.67;;
77226;SDS011;66234;47.642;19.144;2022-12-29T06:48:18;54.45;;;23.25;;
77226;SDS011;66234;47.642;19.144;2022-12-29T06:51:21;41.03;;;18.87;;
77226;SDS011;66234;47.642;19.144;2022-12-29T06:54:23;39.45;;;17.60;;
77226;SDS011;66234;47.642;19.144;2022-12-29T06:57:26;43.90;;;17.90;;
77226;SDS011;66234;47.642;19.144;2022-12-29T07:00:28;41.30;;;18.52;;
77226;SDS011;66234;47.642;19.144;2022-12-29T07:03:31;35.15;;;16.40;;
77226;SDS011;66234;47.642;19.144;2022-12-29T07:06:34;36.13;;;16.00;;
77226;SDS011;66234;47.642;19.144;2022-12-29T07:09:36;42.53;;;18.30;;
77226;SDS011;66234;47.642;19.144;2022-12-29T07:12:39;37.80;;;17.93;;
77226;SDS011;66234;47.642;19.144;2022-12-29T07:15:41;40.88;;;19.30;;
77226;SDS011;66234;47.642;19.144;2022-12-29T07:18:44;35.67;;;17.33;;
77226;SDS011;66234;47.642;19.144;2022-12-29T07:21:46;36.73;;;17.33;;
77226;SDS011;66234;47.642;19.144;2022-12-29T07:24:49;42.95;;;20.90;;
77226;SDS011;66234;47.642;19.144;2022-12-29T07:27:52;45.92;;;22.67;;
77226;SDS011;66234;47.642;19.144;2022-12-29T07:30:54;39.80;;;20.50;;
77226;SDS011;66234;47.642;19.144;2022-12-29T07:33:57;44.03;;;21.92;;
77226;SDS011;66234;47.642;19.144;2022-12-29T07:36:59;42.88;;;21.33;;
77226;SDS011;66234;47.642;19.144;2022-12-29T07:40:02;53.00;;;24.85;;
77226;SDS011;66234;47.642;19.144;2022-12-29T07:43:05;72.23;;;32.67;;
77226;SDS011;66234;47.642;19.144;2022-12-29T07:46:14;90.65;;;40.67;;
77226;SDS011;66234;47.642;19.144;2022-12-29T07:49:37;46.88;;;25.08;;
77226;SDS011;66234;47.642;19.144;2022-12-29T07:52:39;54.43;;;26.97;;
77226;SDS011;66234;47.642;19.144;2022-12-29T07:55:42;51.28;;;25.63;;
77226;SDS011;66234;47.642;19.144;2022-12-29T07:58:45;43.10;;;19.95;;
77226;SDS011;66234;47.642;19.144;2022-12-29T08:01:48;43.72;;;20.13;;
77226;SDS011;66234;47.642;19.144;2022-12-29T08:04:50;39.78;;;18.25;;
77226;SDS011;66234;47.642;19.144;2022-12-29T08:07:53;46.75;;;21.17;;
77226;SDS011;66234;47.642;19.144;2022-12-29T08:10:55;45.17;;;20.88;;
77226;SDS011;66234;47.642;19.144;2022-12-29T08:13:58;42.90;;;20.30;;
77226;SDS011;66234;47.642;19.144;2022-12-29T08:17:01;46.05;;;23.00;;
77226;SDS011;66234;47.642;19.144;2022-12-29T08:20:03;47.67;;;23.02;;
77226;SDS011;66234;47.642;19.144;2022-12-29T08:23:06;41.87;;;20.53;;
77226;SDS011;66234;47.642;19.144;2022-12-29T08:26:09;43.05;;;20.33;;
77226;SDS011;66234;47.642;19.144;2022-12-29T08:29:12;41.83;;;20.98;;
77226;SDS011;66234;47.642;19.144;2022-12-29T08:32:15;45.45;;;20.30;;
77226;SDS011;66234;47.642;19.144;2022-12-29T08:35:18;39.92;;;20.65;;
77226;SDS011;66234;47.642;19.144;2022-12-29T08:38:21;43.92;;;20.60;;
77226;SDS011;66234;47.642;19.144;2022-12-29T08:41:23;36.33;;;17.40;;
77226;SDS011;66234;47.642;19.144;2022-12-29T08:44:26;39.47;;;18.83;;
77226;SDS011;66234;47.642;19.144;2022-12-29T08:47:28;37.58;;;19.30;;
77226;SDS011;66234;47.642;19.144;2022-12-29T08:50:31;40.28;;;19.27;;
77226;SDS011;66234;47.642;19.144;2022-12-29T08:53:34;45.30;;;20.17;;
77226;SDS011;66234;47.642;19.144;2022-12-29T08:56:36;40.90;;;19.58;;
77226;SDS011;66234;47.642;19.144;2022-12-29T08:59:39;40.30;;;18.63;;
77226;SDS011;66234;47.642;19.144;2022-12-29T09:02:44;38.60;;;19.23;;
77226;SDS011;66234;47.642;19.144;2022-12-29T09:05:48;42.40;;;21.55;;
77226;SDS011;66234;47.642;19.144;2022-12-29T09:08:54;34.78;;;16.58;;
77226;SDS011;66234;47.642;19.144;2022-12-29T09:11:58;44.28;;;21.75;;
77226;SDS011;66234;47.642;19.144;2022-12-29T09:15:00;44.30;;;21.37;;
77226;SDS011;66234;47.642;19.144;2022-12-29T09:18:03;48.83;;;22.25;;
77226;SDS011;66234;47.642;19.144;2022-12-29T09:21:06;50.05;;;24.17;;
77226;SDS011;66234;47.642;19.144;2022-12-29T09:24:09;53.03;;;24.57;;
77226;SDS011;66234;47.642;19.144;2022-12-29T09:27:12;41.65;;;21.40;;
77226;SDS011;66234;47.642;19.144;2022-12-29T09:30:14;41.92;;;21.33;;
77226;SDS011;66234;47.642;19.144;2022-12-29T09:33:17;33.88;;;18.77;;
77226;SDS011;66234;47.642;19.144;2022-12-29T09:36:20;49.33;;;23.10;;
77226;SDS011;66234;47.642;19.144;2022-12-29T09:39:22;40.42;;;21.20;;
77226;SDS011;66234;47.642;19.144;2022-12-29T09:45:45;37.77;;;19.83;;
77226;SDS011;66234;47.642;19.144;2022-12-29T09:49:05;32.90;;;16.20;;
77226;SDS011;66234;47.642;19.144;2022-12-29T09:52:21;40.10;;;20.70;;
77226;SDS011;66234;47.642;19.144;2022-12-29T09:55:53;54.00;;;23.93;;
77226;SDS011;66234;47.642;19.144;2022-12-29T09:59:10;41.63;;;21.17;;
77226;SDS011;66234;47.642;19.144;2022-12-29T10:05:39;35.00;;;18.35;;
77226;SDS011;66234;47.642;19.144;2022-12-29T10:08:53;37.75;;;19.08;;
77226;SDS011;66234;47.642;19.144;2022-12-29T10:18:56;41.70;;;20.57;;
77226;SDS011;66234;47.642;19.144;2022-12-29T10:25:58;38.72;;;18.35;;
77226;SDS011;66234;47.642;19.144;2022-12-29T10:29:04;35.23;;;18.50;;
77226;SDS011;66234;47.642;19.144;2022-12-29T10:35:36;34.65;;;18.02;;
77226;SDS011;66234;47.642;19.144;2022-12-29T10:38:51;38.22;;;16.73;;
77226;SDS011;66234;47.642;19.144;2022-12-29T10:42:08;39.37;;;19.80;;
77226;SDS011;66234;47.642;19.144;2022-12-29T10:45:16;33.17;;;17.73;;
77226;SDS011;66234;47.642;19.144;2022-12-29T10:48:25;37.42;;;20.02;;
77226;SDS011;66234;47.642;19.144;2022-12-29T10:51:39;35.37;;;17.57;;
77226;SDS011;66234;47.642;19.144;2022-12-29T10:58:19;37.45;;;18.92;;
77226;SDS011;66234;47.642;19.144;2022-12-29T11:01:25;31.33;;;18.08;;
77226;SDS011;66234;47.642;19.144;2022-12-29T11:07:59;33.42;;;17.75;;
77226;SDS011;66234;47.642;19.144;2022-12-29T11:11:05;36.60;;;19.77;;
77226;SDS011;66234;47.642;19.144;2022-12-29T11:14:13;33.23;;;19.47;;
77226;SDS011;66234;47.642;19.144;2022-12-29T11:17:20;42.37;;;21.27;;
77226;SDS011;66234;47.642;19.144;2022-12-29T11:20:38;31.15;;;18.02;;
77226;SDS011;66234;47.642;19.144;2022-12-29T11:23:41;33.65;;;18.20;;
77226;SDS011;66234;47.642;19.144;2022-12-29T11:26:44;33.43;;;17.97;;
77226;SDS011;66234;47.642;19.144;2022-12-29T11:29:47;35.88;;;20.25;;
77226;SDS011;66234;47.642;19.144;2022-12-29T11:32:51;34.75;;;19.45;;
77226;SDS011;66234;47.642;19.144;2022-12-29T11:35:59;31.70;;;18.80;;
77226;SDS011;66234;47.642;19.144;2022-12-29T11:39:06;39.60;;;21.00;;
77226;SDS011;66234;47.642;19.144;2022-12-29T11:42:36;32.05;;;19.33;;
77226;SDS011;66234;47.642;19.144;2022-12-29T11:45:39;37.65;;;18.23;;
77226;SDS011;66234;47.642;19.144;2022-12-29T11:48:48;37.63;;;17.47;;
77226;SDS011;66234;47.642;19.144;2022-12-29T11:51:51;30.57;;;17.57;;
77226;SDS011;66234;47.642;19.144;2022-12-29T11:54:59;36.97;;;19.63;;
77226;SDS011;66234;47.642;19.144;2022-12-29T11:58:03;35.13;;;18.83;;
77226;SDS011;66234;47.642;19.144;2022-12-29T12:01:11;34.33;;;20.10;;
77226;SDS011;66234;47.642;19.144;2022-12-29T12:04:20;36.80;;;20.77;;
77226;SDS011;66234;47.642;19.144;2022-12-29T12:07:36;39.50;;;22.65;;
77226;SDS011;66234;47.642;19.144;2022-12-29T12:10:51;38.83;;;19.75;;
77226;SDS011;66234;47.642;19.144;2022-12-29T12:17:33;31.87;;;16.57;;
77226;SDS011;66234;47.642;19.144;2022-12-29T12:20:44;32.53;;;17.15;;
77226;SDS011;66234;47.642;19.144;2022-12-29T12:24:15;32.42;;;18.17;;
77226;SDS011;66234;47.642;19.144;2022-12-29T12:30:45;30.97;;;17.47;;
77226;SDS011;66234;47.642;19.144;2022-12-29T12:33:53;35.05;;;19.15;;
77226;SDS011;66234;47.642;19.144;2022-12-29T12:37:15;38.05;;;20.08;;
77226;SDS011;66234;47.642;19.144;2022-12-29T12:41:04;37.03;;;20.57;;
77226;SDS011;66234;47.642;19.144;2022-12-29T12:44:12;34.23;;;18.80;;
77226;SDS011;66234;47.642;19.144;2022-12-29T12:50:52;36.60;;;19.25;;
77226;SDS011;66234;47.642;19.144;2022-12-29T12:54:14;34.70;;;19.90;;
77226;SDS011;66234;47.642;19.144;2022-12-29T13:00:42;40.58;;;20.83;;
77226;SDS011;66234;47.642;19.144;2022-12-29T13:10:54;34.03;;;19.73;;
77226;SDS011;66234;47.642;19.144;2022-12-29T13:17:44;38.65;;;23.15;;
77226;SDS011;66234;47.642;19.144;2022-12-29T13:20:54;38.13;;;21.00;;
77226;SDS011;66234;47.642;19.144;2022-12-29T13:24:06;76.20;;;33.53;;
77226;SDS011;66234;47.642;19.144;2022-12-29T13:27:22;40.30;;;22.73;;
77226;SDS011;66234;47.642;19.144;2022-12-29T13:34:00;48.70;;;24.85;;
77226;SDS011;66234;47.642;19.144;2022-12-29T13:37:17;45.55;;;22.08;;
77226;SDS011;66234;47.642;19.144;2022-12-29T13:40:23;49.42;;;23.48;;
77226;SDS011;66234;47.642;19.144;2022-12-29T13:43:27;56.97;;;26.37;;
77226;SDS011;66234;47.642;19.144;2022-12-29T13:46:34;37.63;;;20.42;;
77226;SDS011;66234;47.642;19.144;2022-12-29T13:49:42;44.15;;;21.50;;
77226;SDS011;66234;47.642;19.144;2022-12-29T13:56:12;32.83;;;19.95;;
77226;SDS011;66234;47.642;19.144;2022-12-29T14:06:02;35.40;;;20.10;;
77226;SDS011;66234;47.642;19.144;2022-12-29T14:12:43;32.33;;;17.90;;
77226;SDS011;66234;47.642;19.144;2022-12-29T14:15:50;37.17;;;18.97;;
77226;SDS011;66234;47.642;19.144;2022-12-29T14:18:56;38.75;;;20.08;;
77226;SDS011;66234;47.642;19.144;2022-12-29T14:22:26;35.50;;;20.05;;
77226;SDS011;66234;47.642;19.144;2022-12-29T14:29:15;37.80;;;19.90;;
77226;SDS011;66234;47.642;19.144;2022-12-29T14:35:38;37.90;;;21.48;;
77226;SDS011;66234;47.642;19.144;2022-12-29T14:38:45;46.40;;;24.25;;
77226;SDS011;66234;47.642;19.144;2022-12-29T14:41:58;55.73;;;27.37;;
77226;SDS011;66234;47.642;19.144;2022-12-29T14:45:28;61.88;;;35.15;;
77226;SDS011;66234;47.642;19.144;2022-12-29T14:48:33;58.13;;;34.20;;
77226;SDS011;66234;47.642;19.144;2022-12-29T14:51:39;44.25;;;22.75;;
77226;SDS011;66234;47.642;19.144;2022-12-29T14:54:44;49.87;;;26.47;;
77226;SDS011;66234;47.642;19.144;2022-12-29T14:57:57;59.67;;;27.30;;
77226;SDS011;66234;47.642;19.144;2022-12-29T15:01:03;76.15;;;35.08;;
77226;SDS011;66234;47.642;19.144;2022-12-29T15:04:25;73.27;;;32.27;;
77226;SDS011;66234;47.642;19.144;2022-12-29T15:07:33;57.42;;;27.92;;
77226;SDS011;66234;47.642;19.144;2022-12-29T15:10:38;54.33;;;27.45;;
77226;SDS011;66234;47.642;19.144;2022-12-29T15:13:45;55.58;;;26.48;;
77226;SDS011;66234;47.642;19.144;2022-12-29T15:16:50;122.18;;;39.45;;
77226;SDS011;66234;47.642;19.144;2022-12-29T15:19:54;209.63;;;71.50;;
77226;SDS011;66234;47.642;19.144;2022-12-29T15:23:00;65.05;;;29.15;;
77226;SDS011;66234;47.642;19.144;2022-12-29T15:26:06;55.03;;;26.13;;
77226;SDS011;66234;47.642;19.144;2022-12-29T15:32:43;61.28;;;30.90;;
77226;SDS011;66234;47.642;19.144;2022-12-29T15:35:50;68.07;;;33.23;;
77226;SDS011;66234;47.642;19.144;2022-12-29T15:38:54;65.82;;;30.52;;
77226;SDS011;66234;47.642;19.144;2022-12-29T15:45:10;69.85;;;33.80;;
77226;SDS011;66234;47.642;19.144;2022-12-29T15:48:18;89.80;;;44.28;;
77226;SDS011;66234;47.642;19.144;2022-12-29T15:51:33;74.10;;;34.58;;
77226;SDS011;66234;47.642;19.144;2022-12-29T15:54:38;70.30;;;34.42;;
77226;SDS011;66234;47.642;19.144;2022-12-29T15:57:44;71.30;;;30.53;;
77226;SDS011;66234;47.642;19.144;2022-12-29T16:00:47;69.10;;;33.92;;
77226;SDS011;66234;47.642;19.144;2022-12-29T16:03:59;62.53;;;30.90;;
77226;SDS011;66234;47.642;19.144;2022-12-29T16:07:05;76.70;;;32.63;;
77226;SDS011;66234;47.642;19.144;2022-12-29T16:10:43;65.15;;;33.05;;
77226;SDS011;66234;47.642;19.144;2022-12-29T16:13:40;66.90;;;31.30;;
77226;SDS011;66234;47.642;19.144;2022-12-29T16:16:43;66.47;;;33.83;;
77226;SDS011;66234;47.642;19.144;2022-12-29T16:19:52;70.45;;;32.95;;
77226;SDS011;66234;47.642;19.144;2022-12-29T16:22:57;69.88;;;34.33;;
77226;SDS011;66234;47.642;19.144;2022-12-29T16:26:01;78.47;;;35.63;;
77226;SDS011;66234;47.642;19.144;2022-12-29T16:29:06;80.20;;;37.27;;
77226;SDS011;66234;47.642;19.144;2022-12-29T16:32:24;79.07;;;38.80;;
77226;SDS011;66234;47.642;19.144;2022-12-29T16:38:45;87.37;;;38.00;;
77226;SDS011;66234;47.642;19.144;2022-12-29T16:41:48;60.83;;;27.98;;
77226;SDS011;66234;47.642;19.144;2022-12-29T16:44:52;65.38;;;30.38;;
77226;SDS011;66234;47.642;19.144;2022-12-29T16:51:28;78.85;;;39.25;;
77226;SDS011;66234;47.642;19.144;2022-12-29T16:54:38;64.68;;;33.00;;
77226;SDS011;66234;47.642;19.144;2022-12-29T16:57:43;66.03;;;29.80;;
77226;SDS011;66234;47.642;19.144;2022-12-29T17:00:47;69.23;;;32.40;;
77226;SDS011;66234;47.642;19.144;2022-12-29T17:03:59;73.35;;;35.28;;
77226;SDS011;66234;47.642;19.144;2022-12-29T17:07:18;66.30;;;33.33;;
77226;SDS011;66234;47.642;19.144;2022-12-29T17:10:22;77.37;;;37.13;;
77226;SDS011;66234;47.642;19.144;2022-12-29T17:13:45;73.82;;;28.60;;
77226;SDS011;66234;47.642;19.144;2022-12-29T17:16:47;64.50;;;28.85;;
77226;SDS011;66234;47.642;19.144;2022-12-29T17:19:51;74.00;;;35.38;;
77226;SDS011;66234;47.642;19.144;2022-12-29T17:22:56;79.75;;;39.15;;
77226;SDS011;66234;47.642;19.144;2022-12-29T17:26:00;78.20;;;37.90;;
77226;SDS011;66234;47.642;19.144;2022-12-29T17:29:03;72.97;;;36.75;;
77226;SDS011;66234;47.642;19.144;2022-12-29T17:32:06;84.43;;;42.73;;
77226;SDS011;66234;47.642;19.144;2022-12-29T17:35:14;77.25;;;35.10;;
77226;SDS011;66234;47.642;19.144;2022-12-29T17:38:28;112.68;;;47.92;;
77226;SDS011;66234;47.642;19.144;2022-12-29T17:41:33;173.50;;;78.50;;
77226;SDS011;66234;47.642;19.144;2022-12-29T17:44:38;86.03;;;38.92;;
77226;SDS011;66234;47.642;19.144;2022-12-29T17:47:40;159.63;;;70.38;;
77226;SDS011;66234;47.642;19.144;2022-12-29T17:50:43;128.95;;;54.30;;
77226;SDS011;66234;47.642;19.144;2022-12-29T17:53:48;96.45;;;47.00;;
77226;SDS011;66234;47.642;19.144;2022-12-29T17:56:53;96.65;;;45.55;;
77226;SDS011;66234;47.642;19.144;2022-12-29T17:59:55;84.53;;;39.80;;
77226;SDS011;66234;47.642;19.144;2022-12-29T18:02:58;86.27;;;43.23;;
77226;SDS011;66234;47.642;19.144;2022-12-29T18:06:01;117.80;;;57.08;;
77226;SDS011;66234;47.642;19.144;2022-12-29T18:09:07;153.88;;;67.07;;
77226;SDS011;66234;47.642;19.144;2022-12-29T18:12:34;179.50;;;75.40;;
77226;SDS011;66234;47.642;19.144;2022-12-29T18:15:38;143.05;;;61.90;;
77226;SDS011;66234;47.642;19.144;2022-12-29T18:18:41;149.07;;;62.88;;
77226;SDS011;66234;47.642;19.144;2022-12-29T18:21:44;146.65;;;65.05;;
77226;SDS011;66234;47.642;19.144;2022-12-29T18:24:47;116.15;;;56.30;;
77226;SDS011;66234;47.642;19.144;2022-12-29T18:27:50;145.18;;;63.72;;
77226;SDS011;66234;47.642;19.144;2022-12-29T18:30:52;128.27;;;56.00;;
77226;SDS011;66234;47.642;19.144;2022-12-29T18:33:57;150.40;;;65.67;;
77226;SDS011;66234;47.642;19.144;2022-12-29T18:37:01;144.27;;;59.25;;
77226;SDS011;66234;47.642;19.144;2022-12-29T18:40:05;104.28;;;49.38;;
77226;SDS011;66234;47.642;19.144;2022-12-29T18:43:17;97.97;;;49.10;;
77226;SDS011;66234;47.642;19.144;2022-12-29T18:46:20;117.20;;;55.90;;
77226;SDS011;66234;47.642;19.144;2022-12-29T18:49:24;112.93;;;56.03;;
77226;SDS011;66234;47.642;19.144;2022-12-29T18:52:27;153.00;;;63.75;;
77226;SDS011;66234;47.642;19.144;2022-12-29T18:55:29;79.82;;;40.55;;
77226;SDS011;66234;47.642;19.144;2022-12-29T18:58:32;82.30;;;41.35;;
77226;SDS011;66234;47.642;19.144;2022-12-29T19:01:35;78.80;;;38.40;;
77226;SDS011;66234;47.642;19.144;2022-12-29T19:04:38;115.07;;;54.30;;
77226;SDS011;66234;47.642;19.144;2022-12-29T19:07:40;104.63;;;49.92;;
77226;SDS011;66234;47.642;19.144;2022-12-29T19:10:43;85.45;;;40.67;;
77226;SDS011;66234;47.642;19.144;2022-12-29T19:13:46;95.80;;;50.47;;
77226;SDS011;66234;47.642;19.144;2022-12-29T19:16:49;89.25;;;46.83;;
77226;SDS011;66234;47.642;19.144;2022-12-29T19:19:51;86.65;;;43.03;;
77226;SDS011;66234;47.642;19.144;2022-12-29T19:22:54;75.93;;;41.55;;
77226;SDS011;66234;47.642;19.144;2022-12-29T19:25:58;86.50;;;42.90;;
77226;SDS011;66234;47.642;19.144;2022-12-29T19:29:00;83.00;;;42.75;;
77226;SDS011;66234;47.642;19.144;2022-12-29T19:32:03;98.13;;;47.58;;
77226;SDS011;66234;47.642;19.144;2022-12-29T19:35:09;95.37;;;45.90;;
77226;SDS011;66234;47.642;19.144;2022-12-29T19:38:12;85.07;;;43.25;;
77226;SDS011;66234;47.642;19.144;2022-12-29T19:41:15;78.45;;;39.28;;
77226;SDS011;66234;47.642;19.144;2022-12-29T19:44:18;86.17;;;41.37;;
77226;SDS011;66234;47.642;19.144;2022-12-29T19:47:21;71.55;;;35.40;;
77226;SDS011;66234;47.642;19.144;2022-12-29T19:50:29;77.22;;;39.97;;
77226;SDS011;66234;47.642;19.144;2022-12-29T19:53:32;72.97;;;34.88;;
77226;SDS011;66234;47.642;19.144;2022-12-29T19:56:35;74.13;;;35.60;;
77226;SDS011;66234;47.642;19.144;2022-12-29T19:59:37;79.78;;;37.75;;